In Rescue
 
Open Full Screen Window  High Contrast Mode
Wind Gusting 00 knots
04
December 04, 2021 5:25 PM CST
Weather Information
Wind Direction
  210 °
Wind Speed
  04 kt (5 mph)
Wind Gust
  00 kt (0 mph)
Altimeter
30.20 in
Visibility
10 SM
Temperature
-04° C
25° F
Dewpoint
-10° C
14° F
Humidity
63%
1hr Rain Fall
00.00 in.
24hr Rain Fall
00.00 in.
Sky Condition
Scattered @ 12,000 ft
VFR

METAR KY49 042325Z AUTO 21004KT 10SM SCT120 M04/M10 A3020 RMK AO2 T10381100

FAA Disclaimer: The data displayed is for advisory purposes only and is not to be used for flight planning or operations.